createdAt,value
2019-02-18T00:01:42.421Z,48.89
2019-02-18T00:04:11.964Z,48.32
2019-02-18T00:06:41.056Z,48.84
2019-02-18T00:09:12.107Z,48.07
2019-02-18T00:11:43.059Z,48.45
2019-02-18T00:14:16.012Z,48.84
2019-02-18T00:16:48.249Z,47.73
2019-02-18T00:19:20.190Z,48.26
2019-02-18T00:21:50.104Z,47.20
2019-02-18T00:24:19.220Z,47.19
2019-02-18T00:26:51.172Z,48.15
2019-02-18T00:29:20.676Z,48.63
2019-02-18T00:31:52.293Z,49.01
2019-02-18T00:34:23.374Z,50.13
2019-02-18T00:36:52.601Z,51.45
2019-02-18T00:39:22.835Z,51.56
2019-02-18T00:41:52.348Z,51.39
2019-02-18T00:44:24.691Z,50.00
2019-02-18T00:46:53.776Z,47.87
2019-02-18T00:49:22.891Z,46.80
2019-02-18T00:51:53.339Z,46.71
2019-02-18T00:54:24.176Z,47.39
2019-02-18T00:56:59.674Z,49.20
2019-02-18T00:59:29.328Z,48.41
2019-02-18T01:01:58.460Z,47.68
2019-02-18T01:04:30.081Z,47.87
2019-02-18T01:06:59.467Z,49.16
2019-02-18T01:09:28.605Z,48.37
2019-02-18T01:11:57.745Z,47.33
2019-02-18T01:14:32.118Z,47.90
2019-02-18T01:17:01.341Z,49.35
2019-02-18T01:19:30.551Z,51.29
2019-02-18T01:22:03.367Z,52.38
2019-02-18T01:24:32.531Z,52.99
2019-02-18T01:27:01.632Z,51.72
2019-02-18T01:29:32.094Z,52.16
2019-02-18T01:32:01.226Z,52.93
2019-02-18T01:34:30.422Z,49.74
2019-02-18T01:37:02.449Z,50.37
2019-02-18T01:39:31.598Z,52.02
2019-02-18T01:42:00.722Z,53.08
2019-02-18T01:44:30.022Z,54.19
2019-02-18T01:46:59.115Z,54.29
2019-02-18T01:49:28.215Z,53.61
2019-02-18T01:51:57.309Z,52.65
2019-02-18T01:54:29.740Z,52.48
2019-02-18T01:57:01.650Z,53.34
2019-02-18T01:59:32.659Z,52.79
2019-02-18T02:02:06.716Z,52.43
2019-02-18T02:04:35.783Z,52.55
2019-02-18T02:07:06.102Z,53.15
2019-02-18T02:09:40.213Z,53.93
2019-02-18T02:12:14.654Z,54.07
2019-02-18T02:14:43.796Z,54.28
2019-02-18T02:17:14.097Z,52.28
2019-02-18T02:19:43.215Z,53.45
2019-02-18T02:22:13.403Z,52.79
2019-02-18T02:24:42.521Z,53.46
2019-02-18T02:27:14.096Z,53.36
2019-02-18T02:29:43.220Z,53.94
2019-02-18T02:32:12.703Z,51.89
2019-02-18T02:34:44.274Z,52.68
2019-02-18T02:37:13.393Z,51.00
2019-02-18T02:39:42.475Z,51.95
2019-02-18T02:42:11.700Z,50.00
2019-02-18T02:44:40.789Z,47.51
2019-02-18T02:47:13.695Z,48.14
2019-02-18T02:49:43.256Z,48.53
2019-02-18T02:52:15.476Z,49.26
2019-02-18T02:54:48.821Z,49.09
2019-02-18T02:57:18.014Z,49.00
2019-02-18T02:59:47.235Z,51.07
2019-02-18T03:02:20.583Z,51.49
2019-02-18T03:04:52.903Z,51.73
2019-02-18T03:07:22.086Z,51.90
2019-02-18T03:09:53.002Z,50.13
2019-02-18T03:12:26.068Z,51.25
2019-02-18T03:14:58.765Z,49.45
2019-02-18T03:17:28.057Z,48.27
2019-02-18T03:19:57.338Z,49.30
2019-02-18T03:22:26.938Z,47.63
2019-02-18T03:25:37.006Z,48.22
2019-02-18T03:28:23.512Z,48.13
2019-02-18T03:31:02.671Z,48.27
2019-02-18T03:33:48.166Z,51.68
2019-02-18T03:36:17.287Z,53.11
2019-02-18T03:38:47.340Z,53.02
2019-02-18T03:41:18.938Z,51.43
2019-02-18T03:43:49.118Z,50.98
2019-02-18T03:46:18.219Z,49.71
2019-02-18T03:48:47.408Z,51.29
2019-02-18T03:51:19.875Z,50.45
2019-02-18T03:53:52.849Z,49.51
2019-02-18T03:56:26.182Z,49.39
2019-02-18T03:58:55.396Z,48.56
2019-02-18T04:01:24.627Z,48.33
2019-02-18T04:03:53.815Z,51.48
2019-02-18T04:06:23.003Z,51.28
2019-02-18T04:08:52.151Z,49.52
2019-02-18T04:11:21.297Z,51.46
2019-02-18T04:13:50.635Z,53.33
2019-02-18T04:16:22.709Z,53.46
2019-02-18T04:18:57.862Z,50.65
2019-02-18T04:21:27.011Z,49.37
2019-02-18T04:23:56.606Z,48.98
2019-02-18T04:26:26.117Z,49.06
2019-02-18T04:28:57.611Z,50.92
2019-02-18T04:31:34.143Z,53.24
2019-02-18T04:34:06.131Z,54.45
2019-02-18T04:36:35.288Z,56.00
2019-02-18T04:39:25.107Z,55.60
2019-02-18T04:41:57.181Z,55.00
2019-02-18T04:44:32.739Z,55.52
2019-02-18T04:47:01.839Z,55.93
2019-02-18T04:49:32.632Z,55.92
2019-02-18T04:52:01.724Z,55.68
2019-02-18T04:54:30.953Z,56.44
2019-02-18T04:57:00.503Z,56.77
2019-02-18T04:59:34.259Z,57.17
2019-02-18T05:02:03.463Z,57.16
2019-02-18T05:04:36.239Z,56.59
2019-02-18T05:07:08.311Z,56.29
2019-02-18T05:09:39.943Z,55.40
2019-02-18T05:12:12.966Z,54.81
2019-02-18T05:14:44.190Z,55.55
2019-02-18T05:17:13.372Z,55.73
2019-02-18T05:19:42.609Z,56.62
2019-02-18T05:22:12.925Z,56.52
2019-02-18T05:24:46.778Z,56.78
2019-02-18T05:27:17.417Z,56.50
2019-02-18T05:29:49.717Z,56.87
2019-02-18T05:32:21.167Z,58.18
2019-02-18T05:34:52.084Z,58.43
2019-02-18T05:37:22.841Z,58.62
2019-02-18T05:39:52.432Z,59.22
2019-02-18T05:42:27.647Z,60.21
2019-02-18T05:44:57.455Z,60.50
2019-02-18T05:47:26.575Z,61.15
2019-02-18T05:50:05.561Z,61.91
2019-02-18T05:52:36.187Z,62.26
2019-02-18T05:55:07.996Z,61.80
2019-02-18T05:57:37.231Z,61.95
2019-02-18T06:00:10.731Z,59.92
2019-02-18T06:02:41.971Z,59.96
2019-02-18T06:05:16.143Z,60.39
2019-02-18T06:07:45.795Z,59.75
2019-02-18T06:10:17.148Z,60.60
2019-02-18T06:12:47.545Z,60.98
2019-02-18T06:15:16.868Z,60.99
2019-02-18T06:17:52.592Z,61.97
2019-02-18T06:20:21.905Z,61.03
2019-02-18T06:22:51.029Z,60.47
2019-02-18T06:25:24.022Z,61.36
2019-02-18T06:27:54.934Z,61.17
2019-02-18T06:30:27.004Z,60.42
2019-02-18T06:33:06.263Z,60.90
2019-02-18T06:35:37.543Z,61.00
2019-02-18T06:38:06.690Z,61.60
2019-02-18T06:40:37.954Z,61.11
2019-02-18T06:43:07.303Z,61.54
2019-02-18T06:45:51.380Z,60.78
2019-02-18T06:48:30.637Z,59.73
2019-02-18T06:51:00.012Z,60.39
2019-02-18T06:53:29.261Z,60.00
2019-02-18T06:56:01.386Z,60.04
2019-02-18T06:58:51.821Z,60.00
2019-02-18T07:01:45.089Z,59.67
2019-02-18T07:04:20.204Z,59.13
2019-02-18T07:06:59.884Z,58.49
2019-02-18T07:09:51.259Z,59.82
2019-02-18T07:12:30.772Z,61.01
2019-02-18T07:15:05.597Z,61.69
2019-02-18T07:17:36.528Z,61.45
2019-02-18T07:20:06.531Z,61.86
2019-02-18T07:22:36.960Z,62.33
2019-02-18T07:25:09.295Z,62.00
2019-02-18T07:27:38.741Z,62.02
2019-02-18T07:30:10.689Z,61.43
2019-02-18T07:32:45.049Z,61.42
2019-02-18T07:35:16.848Z,61.02
2019-02-18T07:37:45.956Z,60.85
2019-02-18T07:40:15.869Z,60.58
2019-02-18T07:42:45.220Z,60.50
2019-02-18T07:45:14.517Z,60.79
2019-02-18T07:47:46.563Z,60.79
2019-02-18T07:50:20.628Z,60.73
2019-02-18T07:52:49.418Z,60.33
2019-02-18T07:55:21.915Z,60.22
2019-02-18T07:57:51.879Z,59.88
2019-02-18T08:00:21.009Z,60.45
2019-02-18T08:02:51.803Z,59.68
2019-02-18T08:05:21.348Z,59.82
2019-02-18T08:07:50.783Z,58.81
2019-02-18T08:10:20.064Z,58.31
2019-02-18T08:12:50.539Z,57.66
2019-02-18T08:15:24.912Z,56.61
2019-02-18T08:17:54.409Z,55.46
2019-02-18T08:20:25.367Z,55.14
2019-02-18T08:22:55.969Z,55.57
2019-02-18T08:25:25.581Z,54.00
2019-02-18T08:27:56.989Z,53.83
2019-02-18T08:30:29.847Z,53.40
2019-02-18T08:33:08.260Z,53.07
2019-02-18T08:35:40.184Z,53.26
2019-02-18T08:38:25.890Z,53.03
2019-02-18T08:40:55.046Z,52.27
2019-02-18T08:43:25.914Z,52.61
2019-02-18T08:45:56.986Z,52.01
2019-02-18T08:48:28.510Z,50.83
2019-02-18T08:51:13.835Z,50.46
2019-02-18T08:53:44.310Z,50.13
2019-02-18T08:56:13.482Z,49.65
2019-02-18T08:58:42.770Z,49.76
2019-02-18T09:01:20.529Z,49.34
2019-02-18T09:03:51.343Z,49.60
2019-02-18T09:06:23.283Z,48.77
2019-02-18T09:08:52.792Z,47.32
2019-02-18T09:11:25.264Z,46.37
2019-02-18T09:13:54.389Z,46.56
2019-02-18T09:16:25.894Z,47.14
2019-02-18T09:18:57.368Z,45.29
2019-02-18T09:21:28.250Z,45.01
2019-02-18T09:24:05.620Z,46.19
2019-02-18T09:26:35.606Z,46.21
2019-02-18T09:29:06.134Z,46.00
2019-02-18T09:31:36.115Z,44.14
2019-02-18T09:34:17.794Z,44.07
2019-02-18T09:36:47.028Z,43.30
2019-02-18T09:39:30.682Z,43.30
2019-02-18T09:41:52.380Z,42.04
2019-02-18T09:44:21.668Z,40.94
2019-02-18T09:46:54.494Z,41.93
2019-02-18T09:49:24.775Z,40.73
2019-02-18T09:51:56.361Z,40.70
2019-02-18T09:54:25.658Z,40.09
2019-02-18T09:56:56.929Z,40.66
2019-02-18T09:59:28.567Z,41.55
2019-02-18T10:01:57.799Z,40.79
2019-02-18T10:04:37.228Z,38.75
2019-02-18T10:07:10.786Z,39.21
2019-02-18T10:09:39.879Z,37.10
2019-02-18T10:12:18.067Z,37.57
2019-02-18T10:14:44.781Z,36.24
2019-02-18T10:17:14.001Z,35.86
2019-02-18T10:19:44.126Z,36.22
2019-02-18T10:22:13.346Z,36.64
2019-02-18T10:27:17.430Z,35.56
2019-02-18T10:29:46.673Z,34.72
2019-02-18T10:32:16.462Z,33.96
2019-02-18T10:34:50.072Z,34.22
2019-02-18T10:37:21.236Z,33.51
2019-02-18T10:40:03.885Z,34.54
2019-02-18T10:42:36.853Z,34.09
2019-02-18T10:45:08.675Z,34.38
2019-02-18T10:47:38.628Z,33.90
2019-02-18T10:50:12.642Z,33.60
2019-02-18T10:52:42.096Z,34.11
2019-02-18T10:55:11.694Z,33.86
2019-02-18T10:57:43.575Z,34.30
2019-02-18T11:00:14.988Z,34.28
2019-02-18T11:02:54.389Z,34.56
2019-02-18T11:05:23.693Z,34.58
2019-02-18T11:07:58.955Z,34.58
2019-02-18T11:10:29.893Z,34.93
2019-02-18T11:13:00.159Z,35.04
2019-02-18T11:15:30.434Z,34.98
2019-02-18T11:18:02.549Z,34.73
2019-02-18T11:20:33.189Z,34.40
2019-02-18T11:23:02.863Z,34.32
2019-02-18T11:25:33.002Z,33.47
2019-02-18T11:28:02.319Z,34.00
2019-02-18T11:30:33.264Z,34.06
2019-02-18T11:33:02.397Z,33.50
2019-02-18T11:35:34.083Z,33.08
2019-02-18T11:38:04.422Z,33.00
2019-02-18T11:40:37.435Z,33.23
2019-02-18T11:43:07.785Z,33.15
2019-02-18T11:45:46.131Z,34.00
2019-02-18T11:48:15.430Z,34.08
2019-02-18T11:50:45.951Z,33.30
2019-02-18T11:53:19.482Z,33.74
2019-02-18T11:55:49.054Z,33.98
2019-02-18T11:58:21.828Z,34.16
2019-02-18T12:00:54.231Z,33.61
2019-02-18T12:03:23.715Z,33.97
2019-02-18T12:05:54.052Z,33.96
2019-02-18T12:08:27.212Z,33.41
2019-02-18T12:10:56.360Z,33.19
2019-02-18T12:13:30.068Z,33.36
2019-02-18T12:16:01.240Z,33.47
2019-02-18T12:18:30.578Z,34.04
2019-02-18T12:21:01.427Z,33.80
2019-02-18T12:23:36.190Z,34.22
2019-02-18T12:26:05.357Z,33.40
2019-02-18T12:28:34.496Z,33.33
2019-02-18T12:31:04.602Z,33.10
2019-02-18T12:33:33.916Z,33.04
2019-02-18T12:36:06.089Z,32.98
2019-02-18T12:38:38.586Z,32.57
2019-02-18T12:41:08.049Z,31.96
2019-02-18T12:43:37.176Z,32.11
2019-02-18T12:46:15.692Z,32.08
2019-02-18T12:48:43.181Z,31.58
2019-02-18T12:51:15.911Z,31.75
2019-02-18T12:53:51.211Z,31.45
2019-02-18T12:56:20.795Z,31.64
2019-02-18T12:58:54.641Z,31.04
2019-02-18T13:01:21.401Z,31.06
2019-02-18T13:03:50.889Z,31.06
2019-02-18T13:06:23.112Z,30.64
2019-02-18T13:08:52.421Z,30.18
2019-02-18T13:11:21.510Z,30.78
2019-02-18T13:13:52.550Z,30.92
2019-02-18T13:16:25.125Z,30.62
2019-02-18T13:18:54.383Z,30.20
2019-02-18T13:21:23.697Z,30.15
2019-02-18T13:23:53.693Z,30.68
2019-02-18T13:26:23.339Z,30.53
2019-02-18T13:28:54.270Z,29.96
2019-02-18T13:31:24.464Z,29.89
2019-02-18T13:33:55.283Z,30.03
2019-02-18T13:36:30.077Z,29.71
2019-02-18T13:39:00.904Z,29.17
2019-02-18T13:41:33.214Z,29.61
2019-02-18T13:44:02.335Z,29.92
2019-02-18T13:46:31.784Z,29.77
2019-02-18T13:49:02.896Z,28.67
2019-02-18T13:51:34.489Z,29.66
2019-02-18T13:54:03.816Z,29.45
2019-02-18T13:56:38.690Z,30.18
2019-02-18T13:59:08.492Z,29.68
2019-02-18T14:01:38.042Z,29.65
2019-02-18T14:04:09.715Z,29.62
2019-02-18T14:06:40.738Z,29.23
2019-02-18T14:09:10.396Z,28.79
2019-02-18T14:11:42.173Z,28.57
2019-02-18T14:14:15.472Z,28.91
2019-02-18T14:16:49.277Z,28.49
2019-02-18T14:19:36.971Z,28.48
2019-02-18T14:22:24.344Z,28.49
2019-02-18T14:24:53.449Z,28.56
2019-02-18T14:27:24.841Z,27.95
2019-02-18T14:29:54.419Z,27.76
2019-02-18T14:32:25.897Z,28.04
2019-02-18T14:34:55.046Z,27.42
2019-02-18T14:37:25.933Z,27.33
2019-02-18T14:39:55.158Z,27.69
2019-02-18T14:42:25.777Z,27.94
2019-02-18T14:44:55.196Z,27.48
2019-02-18T14:47:25.337Z,27.71
2019-02-18T14:49:55.314Z,28.20
2019-02-18T14:52:25.041Z,28.18
2019-02-18T14:54:55.293Z,27.91
2019-02-18T14:57:25.580Z,28.02
2019-02-18T15:00:02.531Z,28.25
2019-02-18T15:02:33.601Z,27.83
2019-02-18T15:05:03.712Z,27.37
2019-02-18T15:07:37.287Z,27.72
2019-02-18T15:10:07.386Z,27.32
2019-02-18T15:12:36.791Z,27.48
2019-02-18T15:15:09.391Z,27.66
2019-02-18T15:17:39.431Z,27.78
2019-02-18T15:20:11.890Z,26.98
2019-02-18T15:22:41.621Z,27.26
2019-02-18T15:25:10.857Z,27.06
2019-02-18T15:27:41.819Z,27.54
2019-02-18T15:30:14.971Z,27.55
2019-02-18T15:32:44.463Z,27.45
2019-02-18T15:35:15.383Z,27.62
2019-02-18T15:37:45.695Z,27.44
2019-02-18T15:40:16.679Z,28.03
2019-02-18T15:42:48.561Z,27.91
2019-02-18T15:45:20.032Z,27.61
2019-02-18T15:48:10.924Z,28.55
2019-02-18T15:50:40.223Z,28.45
2019-02-18T15:53:19.417Z,28.24
2019-02-18T15:55:48.592Z,28.54
2019-02-18T15:58:18.911Z,28.78
2019-02-18T16:00:50.003Z,29.10
2019-02-18T16:03:20.482Z,29.45
2019-02-18T16:05:54.808Z,29.86
2019-02-18T16:08:23.922Z,29.96
2019-02-18T16:10:55.726Z,29.65
2019-02-18T16:13:25.049Z,29.70
2019-02-18T16:15:55.461Z,29.30
2019-02-18T16:18:28.112Z,29.28
2019-02-18T16:21:03.657Z,29.27
2019-02-18T16:23:35.770Z,29.18
2019-02-18T16:26:07.409Z,29.62
2019-02-18T16:28:44.263Z,29.67
2019-02-18T16:31:13.691Z,29.43
2019-02-18T16:33:45.047Z,30.25
2019-02-18T16:36:14.244Z,30.07
2019-02-18T16:38:43.438Z,30.15
2019-02-18T16:41:16.746Z,30.40
2019-02-18T16:43:48.291Z,30.84
2019-02-18T16:46:16.820Z,31.67
2019-02-18T16:48:46.439Z,31.45
2019-02-18T16:51:16.366Z,31.61
2019-02-18T16:53:48.207Z,31.47
2019-02-18T16:56:18.588Z,32.15
2019-02-18T16:58:50.190Z,31.80
2019-02-18T17:01:19.546Z,31.02
2019-02-18T17:03:50.348Z,31.86
2019-02-18T17:06:20.389Z,31.46
2019-02-18T17:08:49.577Z,32.10
2019-02-18T17:11:18.710Z,32.68
2019-02-18T17:13:49.050Z,32.91
2019-02-18T17:16:18.488Z,32.68
2019-02-18T17:18:47.739Z,33.02
2019-02-18T17:21:16.892Z,33.77
2019-02-18T17:23:45.993Z,34.23
2019-02-18T17:26:16.547Z,34.56
2019-02-18T17:28:45.697Z,34.82
2019-02-18T17:31:15.323Z,35.36
2019-02-18T17:33:44.439Z,35.60
2019-02-18T17:36:15.448Z,35.96
2019-02-18T17:38:44.683Z,36.14
2019-02-18T17:41:13.954Z,36.14
2019-02-18T17:43:43.255Z,36.65
2019-02-18T17:46:14.618Z,37.41
2019-02-18T17:48:43.740Z,38.25
2019-02-18T17:51:18.702Z,37.95
2019-02-18T17:53:49.061Z,38.57
2019-02-18T17:56:18.336Z,39.70
2019-02-18T17:58:50.700Z,39.84
2019-02-18T18:01:19.873Z,39.23
2019-02-18T18:03:49.671Z,39.11
2019-02-18T18:06:18.784Z,41.44
2019-02-18T18:08:47.907Z,42.50
2019-02-18T18:11:18.009Z,42.76
2019-02-18T18:13:48.417Z,41.56
2019-02-18T18:16:17.533Z,39.87
2019-02-18T18:18:51.361Z,39.73
2019-02-18T18:21:20.126Z,40.23
2019-02-18T18:23:49.423Z,40.13
2019-02-18T18:26:20.561Z,41.66
2019-02-18T18:28:49.711Z,41.50
2019-02-18T18:31:20.387Z,41.71
2019-02-18T18:33:49.566Z,41.58
2019-02-18T18:36:19.760Z,42.53
2019-02-18T18:38:50.049Z,44.09
2019-02-18T18:41:19.761Z,44.46
2019-02-18T18:43:51.272Z,44.71
2019-02-18T18:46:22.169Z,45.52
2019-02-18T18:48:51.409Z,45.16
2019-02-18T18:51:20.660Z,45.48
2019-02-18T18:53:49.892Z,46.96
2019-02-18T18:56:19.089Z,46.91
2019-02-18T18:58:48.678Z,47.75
2019-02-18T19:01:20.099Z,47.82
2019-02-18T19:03:49.277Z,47.24
2019-02-18T19:06:18.441Z,47.11
2019-02-18T19:08:49.803Z,47.65
2019-02-18T19:11:18.935Z,47.50
2019-02-18T19:13:50.418Z,47.64
2019-02-18T19:16:19.562Z,48.01
2019-02-18T19:18:48.848Z,50.08
2019-02-18T19:21:19.148Z,50.07
2019-02-18T19:23:50.406Z,49.66
2019-02-18T19:26:26.822Z,49.14
2019-02-18T19:28:55.979Z,48.61
2019-02-18T19:31:28.973Z,48.54
2019-02-18T19:33:59.203Z,48.22
2019-02-18T19:36:28.691Z,48.90
2019-02-18T19:38:57.949Z,49.33
2019-02-18T19:41:27.138Z,50.35
2019-02-18T19:43:56.643Z,50.56
2019-02-18T19:46:28.256Z,50.88
2019-02-18T19:48:57.763Z,51.67
2019-02-18T19:51:27.450Z,52.14
2019-02-18T19:53:56.872Z,52.64
2019-02-18T19:56:28.595Z,52.68
2019-02-18T19:58:57.771Z,52.74
2019-02-18T20:01:27.119Z,53.11
2019-02-18T20:04:02.883Z,53.02
2019-02-18T20:06:32.127Z,53.21
2019-02-18T20:09:01.346Z,52.29
2019-02-18T20:11:30.888Z,52.45
2019-02-18T20:14:02.935Z,52.92
2019-02-18T20:16:32.101Z,52.68
2019-02-18T20:19:02.540Z,52.74
2019-02-18T20:21:36.147Z,53.16
2019-02-18T20:24:06.764Z,53.45
2019-02-18T20:26:38.275Z,53.26
2019-02-18T20:29:14.055Z,52.47
2019-02-18T20:31:50.650Z,52.00
2019-02-18T20:34:21.389Z,51.93
2019-02-18T20:36:54.525Z,52.22
2019-02-18T20:39:25.751Z,53.76
2019-02-18T20:41:54.935Z,54.28
2019-02-18T20:44:24.060Z,55.73
2019-02-18T20:46:57.148Z,56.10
2019-02-18T20:49:29.635Z,55.82
2019-02-18T20:51:58.900Z,54.04
2019-02-18T20:54:29.698Z,53.78
2019-02-18T20:56:59.389Z,54.44
2019-02-18T20:59:28.535Z,55.58
2019-02-18T21:02:00.108Z,55.38
2019-02-18T21:04:31.163Z,55.96
2019-02-18T21:07:00.312Z,55.24
2019-02-18T21:09:29.486Z,55.53
2019-02-18T21:11:58.594Z,56.48
2019-02-18T21:14:29.054Z,57.14
2019-02-18T21:17:00.469Z,57.98
2019-02-18T21:19:30.474Z,58.15
2019-02-18T21:21:59.606Z,57.31
2019-02-18T21:24:28.749Z,57.07
2019-02-18T21:26:57.935Z,57.26
2019-02-18T21:29:27.068Z,58.06
2019-02-18T21:31:56.752Z,58.45
2019-02-18T21:34:25.876Z,57.85
2019-02-18T21:36:55.033Z,57.46
2019-02-18T21:39:24.832Z,57.55
2019-02-18T21:41:54.152Z,57.38
2019-02-18T21:44:25.536Z,57.75
2019-02-18T21:46:54.177Z,56.51
2019-02-18T21:49:25.152Z,56.35
2019-02-18T21:51:54.236Z,56.50
2019-02-18T21:54:23.385Z,57.36
2019-02-18T21:56:52.556Z,56.93
2019-02-18T21:59:23.081Z,57.28
2019-02-18T22:01:55.949Z,56.39
2019-02-18T22:04:25.663Z,55.84
2019-02-18T22:06:54.798Z,57.20
2019-02-18T22:09:26.131Z,57.30
2019-02-18T22:12:06.828Z,56.76
2019-02-18T22:14:40.680Z,55.61
2019-02-18T22:17:25.020Z,56.55
2019-02-18T22:19:54.283Z,55.62
2019-02-18T22:22:27.195Z,55.51
2019-02-18T22:24:58.437Z,58.03
2019-02-18T22:27:32.425Z,56.22
2019-02-18T22:30:01.620Z,56.89
2019-02-18T22:32:30.908Z,56.68
2019-02-18T22:35:01.612Z,57.08
2019-02-18T22:37:32.246Z,56.75
2019-02-18T22:40:05.013Z,57.32
2019-02-18T22:42:36.647Z,56.98
2019-02-18T22:45:07.557Z,57.18
2019-02-18T22:47:36.784Z,56.35
2019-02-18T22:50:06.332Z,55.92
2019-02-18T22:52:37.068Z,56.23
2019-02-18T22:55:06.987Z,56.05
2019-02-18T22:57:37.721Z,55.63
2019-02-18T23:00:13.584Z,55.05
2019-02-18T23:02:45.653Z,55.59
2019-02-18T23:05:18.135Z,56.41
2019-02-18T23:07:50.420Z,56.24
2019-02-18T23:10:19.526Z,56.73
2019-02-18T23:12:51.694Z,56.59
2019-02-18T23:15:21.985Z,56.15
2019-02-18T23:17:51.314Z,56.09
2019-02-18T23:20:20.641Z,56.43
2019-02-18T23:22:49.752Z,56.61
2019-02-18T23:25:25.898Z,56.64
2019-02-18T23:27:54.979Z,56.47
2019-02-18T23:30:25.166Z,56.71
2019-02-18T23:32:54.587Z,56.22
2019-02-18T23:35:28.648Z,56.50
2019-02-18T23:37:58.005Z,56.37
2019-02-18T23:40:27.235Z,56.15
2019-02-18T23:42:58.365Z,57.03
2019-02-18T23:45:28.587Z,57.34
2019-02-18T23:48:04.042Z,56.93
2019-02-18T23:50:42.251Z,57.39
2019-02-18T23:53:11.401Z,57.73
2019-02-18T23:55:40.536Z,57.15
2019-02-18T23:58:11.491Z,58.11
